Terminal Aerodrome Forecast
Issued by NWS

Home | Current Version | Previous Version | Text Only | Print | Product List | Glossary On
Versions: 1 2 3 4 5 6 7 8 9 10 11 12 13
760
FTUS41 KBTV 182340
TAFMSS
TAF
KMSS 182340Z 1900/1924 23006KT P6SM SKC
     FM190400 21007KT P6SM SKC WS020/23035KT
     FM191300 21013G23KT P6SM FEW250
     FM191900 23016G28KT P6SM SCT045 BKN090=

USA.gov is the U.S. government's official web portal to all federal, state and local government web resources and services.